createdAt,value
2023-03-26T00:01:33.957Z,13.51
2023-03-26T00:04:01.389Z,13.49
2023-03-26T00:06:36.870Z,13.47
2023-03-26T00:09:05.799Z,13.52
2023-03-26T00:11:33.192Z,13.55
2023-03-26T00:14:00.227Z,13.55
2023-03-26T00:16:30.367Z,13.56
2023-03-26T00:18:58.327Z,13.54
2023-03-26T00:21:28.450Z,13.55
2023-03-26T00:23:58.693Z,13.49
2023-03-26T00:26:31.349Z,13.44
2023-03-26T00:29:00.932Z,13.40
2023-03-26T00:31:28.054Z,13.41
2023-03-26T00:33:55.951Z,13.47
2023-03-26T00:36:25.820Z,13.43
2023-03-26T00:38:54.205Z,13.40
2023-03-26T00:41:31.172Z,13.40
2023-03-26T00:44:00.227Z,13.34
2023-03-26T00:46:29.968Z,13.27
2023-03-26T00:48:59.064Z,13.25
2023-03-26T00:51:28.254Z,13.24
2023-03-26T00:53:56.462Z,13.18
2023-03-26T00:56:23.939Z,13.16
2023-03-26T00:58:50.961Z,13.13
2023-03-26T01:01:28.757Z,13.09
2023-03-26T01:04:08.354Z,13.08
2023-03-26T01:06:39.266Z,13.08
2023-03-26T01:09:20.216Z,13.05
2023-03-26T01:11:48.969Z,13.01
2023-03-26T01:14:23.731Z,13.01
2023-03-26T01:16:58.229Z,13.05
2023-03-26T01:19:29.795Z,13.08
2023-03-26T01:21:59.168Z,13.12
2023-03-26T01:24:26.624Z,13.09
2023-03-26T01:27:18.714Z,13.10
2023-03-26T01:29:54.262Z,13.12
2023-03-26T01:32:33.422Z,13.10
2023-03-26T01:35:29.400Z,13.07
2023-03-26T01:38:10.918Z,13.01
2023-03-26T01:40:51.537Z,13.02
2023-03-26T01:43:26.830Z,13.05
2023-03-26T01:45:54.624Z,13.06
2023-03-26T01:48:31.329Z,13.09
2023-03-26T01:50:58.961Z,13.09
2023-03-26T01:53:27.161Z,13.04
2023-03-26T01:56:06.168Z,13.05
2023-03-26T01:58:58.712Z,12.98
2023-03-26T02:02:09.193Z,12.98
2023-03-26T02:05:15.958Z,12.97
2023-03-26T02:07:56.274Z,12.95
2023-03-26T02:10:23.464Z,12.95
2023-03-26T02:12:51.297Z,12.97
2023-03-26T02:15:19.066Z,12.94
2023-03-26T02:17:47.133Z,12.91
2023-03-26T02:20:15.813Z,12.95
2023-03-26T02:22:46.175Z,12.98
2023-03-26T02:25:20.313Z,13.01
2023-03-26T02:27:52.156Z,13.05
2023-03-26T02:30:27.214Z,13.05
2023-03-26T02:33:00.383Z,13.01
2023-03-26T02:35:35.541Z,13.00
2023-03-26T02:38:03.501Z,12.97
2023-03-26T02:40:30.822Z,12.97
2023-03-26T02:42:58.889Z,12.97
2023-03-26T02:45:28.160Z,12.89
2023-03-26T02:48:15.472Z,12.96
2023-03-26T02:50:43.328Z,12.90
2023-03-26T02:53:31.614Z,12.85
2023-03-26T02:56:34.192Z,12.83
2023-03-26T02:59:33.932Z,12.84
2023-03-26T03:02:40.024Z,12.86
2023-03-26T03:05:38.223Z,12.94
2023-03-26T03:08:14.512Z,12.91
2023-03-26T03:11:03.172Z,12.95
2023-03-26T03:13:38.490Z,12.97
2023-03-26T03:16:06.065Z,12.96
2023-03-26T03:18:33.658Z,12.96
2023-03-26T03:21:03.151Z,12.91
2023-03-26T03:23:31.979Z,12.79
2023-03-26T03:26:21.902Z,12.78
2023-03-26T03:28:56.591Z,12.68
2023-03-26T03:31:25.887Z,12.59
2023-03-26T03:33:57.343Z,12.54
2023-03-26T03:36:28.080Z,12.50
2023-03-26T03:39:17.954Z,12.50
2023-03-26T03:41:45.403Z,12.53
2023-03-26T03:44:15.159Z,12.54
2023-03-26T03:46:42.796Z,12.52
2023-03-26T03:49:10.179Z,12.58
2023-03-26T03:51:38.201Z,12.59
2023-03-26T03:54:14.576Z,12.56
2023-03-26T03:56:49.233Z,12.53
2023-03-26T03:59:25.356Z,12.44
2023-03-26T04:01:52.852Z,12.36
2023-03-26T04:04:27.908Z,12.28
2023-03-26T04:07:04.495Z,12.27
2023-03-26T04:09:51.589Z,12.28
2023-03-26T04:12:21.313Z,12.24
2023-03-26T04:14:57.781Z,12.24
2023-03-26T04:17:26.017Z,12.30
2023-03-26T04:19:55.802Z,12.38
2023-03-26T04:22:34.807Z,12.44
2023-03-26T04:25:05.431Z,12.43
2023-03-26T04:27:41.850Z,12.38
2023-03-26T04:30:20.784Z,12.31
2023-03-26T04:33:04.328Z,12.24
2023-03-26T04:35:34.851Z,12.15
2023-03-26T04:38:06.623Z,12.07
2023-03-26T04:40:39.294Z,12.02
2023-03-26T04:43:31.419Z,11.94
2023-03-26T04:46:27.919Z,11.86
2023-03-26T04:49:15.732Z,11.83
2023-03-26T04:51:44.976Z,11.77
2023-03-26T04:54:43.414Z,11.79
2023-03-26T04:57:25.627Z,11.93
2023-03-26T04:59:58.800Z,12.23
2023-03-26T05:02:26.788Z,12.60
2023-03-26T05:04:57.354Z,13.08
2023-03-26T05:07:28.640Z,13.69
2023-03-26T05:09:57.748Z,14.01
2023-03-26T05:12:37.614Z,14.20
2023-03-26T05:15:18.108Z,14.02
2023-03-26T05:17:59.620Z,13.86
2023-03-26T05:20:36.145Z,13.77
2023-03-26T05:23:07.575Z,13.77
2023-03-26T05:25:41.364Z,13.92
2023-03-26T05:28:24.410Z,14.34
2023-03-26T05:30:58.197Z,15.47
2023-03-26T05:33:27.803Z,16.86
2023-03-26T05:36:09.461Z,17.87
2023-03-26T05:38:37.258Z,18.91
2023-03-26T05:41:08.751Z,19.44
2023-03-26T05:43:38.107Z,19.23
2023-03-26T05:46:25.102Z,19.78
2023-03-26T05:48:52.723Z,20.76
2023-03-26T05:51:21.085Z,21.77
2023-03-26T05:53:57.689Z,22.50
2023-03-26T05:56:48.094Z,22.37
2023-03-26T05:59:33.583Z,22.07
2023-03-26T06:02:18.770Z,21.57
2023-03-26T06:05:10.285Z,22.16
2023-03-26T06:07:53.527Z,23.15
2023-03-26T06:10:20.934Z,23.83
2023-03-26T06:12:49.779Z,24.64
2023-03-26T06:15:19.708Z,25.19
2023-03-26T06:17:49.424Z,25.67
2023-03-26T06:20:48.820Z,26.05
2023-03-26T06:23:25.519Z,26.29
2023-03-26T06:26:05.936Z,26.25
2023-03-26T06:28:51.942Z,26.34
2023-03-26T06:31:34.012Z,27.24
2023-03-26T06:34:22.319Z,27.71
2023-03-26T06:36:52.705Z,26.25
2023-03-26T06:39:21.849Z,27.14
2023-03-26T06:42:21.282Z,25.58
2023-03-26T06:45:27.372Z,26.08
2023-03-26T06:48:17.398Z,27.22
2023-03-26T06:50:58.025Z,27.40
2023-03-26T06:53:45.066Z,27.85
2023-03-26T06:56:38.240Z,26.99
2023-03-26T06:59:26.712Z,25.83
2023-03-26T07:02:12.431Z,24.44
2023-03-26T07:05:06.139Z,24.56
2023-03-26T07:07:51.993Z,24.31
2023-03-26T07:10:37.488Z,24.41
2023-03-26T07:13:13.642Z,24.19
2023-03-26T07:15:50.006Z,24.43
2023-03-26T07:18:30.546Z,24.67
2023-03-26T07:20:58.909Z,25.21
2023-03-26T07:23:30.616Z,25.09
2023-03-26T07:26:39.712Z,24.88
2023-03-26T07:29:22.111Z,24.38
2023-03-26T07:32:43.548Z,24.09
2023-03-26T07:35:55.757Z,23.53
2023-03-26T07:38:51.925Z,23.77
2023-03-26T07:41:57.607Z,23.86
2023-03-26T07:44:59.739Z,23.80
2023-03-26T07:47:53.972Z,23.86
2023-03-26T07:50:43.962Z,23.13
2023-03-26T07:53:23.442Z,23.15
2023-03-26T07:56:21.438Z,23.31
2023-03-26T07:59:31.274Z,23.74
2023-03-26T08:03:01.395Z,23.93
2023-03-26T08:06:36.323Z,24.07
2023-03-26T08:09:42.138Z,24.10
2023-03-26T08:12:52.752Z,24.67
2023-03-26T08:15:41.973Z,24.46
2023-03-26T08:18:27.624Z,23.92
2023-03-26T08:21:01.229Z,23.24
2023-03-26T08:23:38.348Z,22.27
2023-03-26T08:26:40.137Z,21.99
2023-03-26T08:29:34.639Z,21.90
2023-03-26T08:32:05.238Z,21.65
2023-03-26T08:34:32.483Z,21.51
2023-03-26T08:36:59.841Z,21.25
2023-03-26T08:39:26.957Z,21.20
2023-03-26T08:42:16.033Z,20.97
2023-03-26T08:45:01.927Z,21.01
2023-03-26T08:47:52.021Z,20.90
2023-03-26T08:50:53.508Z,21.04
2023-03-26T08:53:23.721Z,20.93
2023-03-26T08:56:23.287Z,20.55
2023-03-26T08:59:16.012Z,20.32
2023-03-26T09:01:58.316Z,20.24
2023-03-26T09:04:28.090Z,20.28
2023-03-26T09:07:15.579Z,20.10
2023-03-26T09:10:19.848Z,19.88
2023-03-26T09:13:14.334Z,19.59
2023-03-26T09:15:59.843Z,19.58
2023-03-26T09:18:48.513Z,19.61
2023-03-26T09:21:38.090Z,19.74
2023-03-26T09:24:25.643Z,19.76
2023-03-26T09:26:56.135Z,19.99
2023-03-26T09:29:54.036Z,20.09
2023-03-26T09:33:03.556Z,19.97
2023-03-26T09:35:55.670Z,19.48
2023-03-26T09:38:45.983Z,19.25
2023-03-26T09:41:18.897Z,19.19
2023-03-26T09:44:04.323Z,19.17
2023-03-26T09:46:46.662Z,19.23
2023-03-26T09:49:32.343Z,19.23
2023-03-26T09:52:50.476Z,19.56
2023-03-26T09:55:26.301Z,19.90
2023-03-26T09:58:20.127Z,19.61
2023-03-26T10:01:04.289Z,19.65
2023-03-26T10:03:49.369Z,19.87
2023-03-26T10:06:40.239Z,20.06
2023-03-26T10:09:19.594Z,20.10
2023-03-26T10:12:18.689Z,19.85
2023-03-26T10:15:11.333Z,19.87
2023-03-26T10:17:57.411Z,19.83
2023-03-26T10:20:32.414Z,19.72
2023-03-26T10:23:45.334Z,20.04
2023-03-26T10:26:24.686Z,20.23
2023-03-26T10:29:00.485Z,20.18
2023-03-26T10:31:27.608Z,19.76
2023-03-26T10:33:59.644Z,19.79
2023-03-26T10:37:10.096Z,19.72
2023-03-26T10:40:06.047Z,19.85
2023-03-26T10:42:50.871Z,19.84
2023-03-26T10:45:49.968Z,19.89
2023-03-26T10:48:25.947Z,19.66
2023-03-26T10:51:30.112Z,19.86
2023-03-26T10:54:00.955Z,19.52
2023-03-26T10:56:36.376Z,19.09
2023-03-26T10:59:12.486Z,19.17
2023-03-26T11:02:03.590Z,19.32
2023-03-26T11:05:05.060Z,19.81
2023-03-26T11:07:52.025Z,19.97
2023-03-26T11:10:32.341Z,20.03
2023-03-26T11:13:44.187Z,20.14
2023-03-26T11:16:47.400Z,20.27
2023-03-26T11:19:56.498Z,19.98
2023-03-26T11:22:38.717Z,19.49
2023-03-26T11:25:42.270Z,19.36
2023-03-26T11:28:25.933Z,19.37
2023-03-26T11:31:08.155Z,19.53
2023-03-26T11:33:47.496Z,19.25
2023-03-26T11:36:23.918Z,19.06
2023-03-26T11:38:54.180Z,19.48
2023-03-26T11:41:31.334Z,19.56
2023-03-26T11:44:27.351Z,19.54
2023-03-26T11:47:01.438Z,19.60
2023-03-26T11:49:29.688Z,19.47
2023-03-26T11:51:56.894Z,18.97
2023-03-26T11:54:23.912Z,18.50
2023-03-26T11:57:05.914Z,18.38
2023-03-26T11:59:56.976Z,18.40
2023-03-26T12:02:34.446Z,18.63
2023-03-26T12:05:26.551Z,18.84
2023-03-26T12:07:59.732Z,18.74
2023-03-26T12:10:29.222Z,18.87
2023-03-26T12:13:01.589Z,18.70
2023-03-26T12:15:31.201Z,18.63
2023-03-26T12:17:59.530Z,18.85
2023-03-26T12:20:26.558Z,18.93
2023-03-26T12:22:59.546Z,19.15
2023-03-26T12:25:39.231Z,19.13
2023-03-26T12:28:16.449Z,18.85
2023-03-26T12:31:01.060Z,18.48
2023-03-26T12:33:34.603Z,18.13
2023-03-26T12:36:26.806Z,18.16
2023-03-26T12:39:15.958Z,18.19
2023-03-26T12:42:52.600Z,18.15
2023-03-26T12:44:56.340Z,18.22
2023-03-26T12:47:57.495Z,18.46
2023-03-26T12:50:18.060Z,18.62
2023-03-26T12:53:37.784Z,18.57
2023-03-26T12:56:11.896Z,18.60
2023-03-26T12:58:51.266Z,18.56
2023-03-26T13:01:55.995Z,18.47
2023-03-26T13:04:38.039Z,18.30
2023-03-26T13:07:22.341Z,18.33
2023-03-26T13:09:58.209Z,18.41
2023-03-26T13:12:54.618Z,18.58
2023-03-26T13:15:35.711Z,18.58
2023-03-26T13:18:12.201Z,18.44
2023-03-26T13:20:58.725Z,18.59
2023-03-26T13:23:49.495Z,18.67
2023-03-26T13:26:22.742Z,18.55
2023-03-26T13:28:58.204Z,18.54
2023-03-26T13:31:36.259Z,18.60
2023-03-26T13:34:09.495Z,18.28
2023-03-26T13:36:36.417Z,18.05
2023-03-26T13:39:21.684Z,18.03
2023-03-26T13:42:22.062Z,18.15
2023-03-26T13:45:15.746Z,18.21
2023-03-26T13:47:49.716Z,18.49
2023-03-26T13:50:27.950Z,18.54
2023-03-26T13:53:24.370Z,18.62
2023-03-26T13:56:00.471Z,18.43
2023-03-26T13:59:00.585Z,18.52
2023-03-26T14:01:35.426Z,18.67
2023-03-26T14:04:17.994Z,18.64
2023-03-26T14:06:48.096Z,18.56
2023-03-26T14:09:32.185Z,18.32
2023-03-26T14:12:22.527Z,18.31
2023-03-26T14:14:59.402Z,18.35
2023-03-26T14:17:31.469Z,18.41
2023-03-26T14:20:01.522Z,18.44
2023-03-26T14:22:28.601Z,18.42
2023-03-26T14:25:19.928Z,18.48
2023-03-26T14:28:11.163Z,18.54
2023-03-26T14:30:44.375Z,18.38
2023-03-26T14:33:28.160Z,18.21
2023-03-26T14:36:07.266Z,17.96
2023-03-26T14:38:56.808Z,17.87
2023-03-26T14:41:39.026Z,17.86
2023-03-26T14:44:24.638Z,17.85
2023-03-26T14:47:09.820Z,18.05
2023-03-26T14:50:08.431Z,18.25
2023-03-26T14:52:51.998Z,18.28
2023-03-26T14:55:37.658Z,18.37
2023-03-26T14:58:34.401Z,18.32
2023-03-26T15:01:17.456Z,18.32
2023-03-26T15:04:16.122Z,18.31
2023-03-26T15:07:01.486Z,18.07
2023-03-26T15:09:49.255Z,17.98
2023-03-26T15:12:27.684Z,17.97
2023-03-26T15:15:16.672Z,17.84
2023-03-26T15:17:59.146Z,17.79
2023-03-26T15:21:02.124Z,17.80
2023-03-26T15:23:38.192Z,17.79
2023-03-26T15:26:42.770Z,17.77
2023-03-26T15:29:45.941Z,17.69
2023-03-26T15:32:57.329Z,17.54
2023-03-26T15:35:49.304Z,17.55
2023-03-26T15:38:42.708Z,17.53
2023-03-26T15:41:47.176Z,17.50
2023-03-26T15:44:26.654Z,17.51
2023-03-26T15:47:26.455Z,17.53
2023-03-26T15:50:30.782Z,17.59
2023-03-26T15:53:21.475Z,17.65
2023-03-26T15:56:07.559Z,17.55
2023-03-26T15:59:23.872Z,17.59
2023-03-26T16:02:08.035Z,17.71
2023-03-26T16:04:51.950Z,17.74
2023-03-26T16:07:39.236Z,17.78
2023-03-26T16:10:54.171Z,17.64
2023-03-26T16:13:35.110Z,17.55
2023-03-26T16:16:07.047Z,17.50
2023-03-26T16:18:45.228Z,17.43
2023-03-26T16:21:32.651Z,17.48
2023-03-26T16:24:03.013Z,17.47
2023-03-26T16:26:53.439Z,17.41
2023-03-26T16:29:22.594Z,17.42
2023-03-26T16:32:15.200Z,17.34
2023-03-26T16:34:51.352Z,17.28
2023-03-26T16:37:36.832Z,17.24
2023-03-26T16:40:22.676Z,17.20
2023-03-26T16:43:37.876Z,17.18
2023-03-26T16:46:20.077Z,17.20
2023-03-26T16:49:27.857Z,17.20
2023-03-26T16:51:58.066Z,17.18
2023-03-26T16:54:40.185Z,17.18
2023-03-26T16:57:13.327Z,17.18
2023-03-26T17:00:04.598Z,17.15
2023-03-26T17:02:46.560Z,17.14
2023-03-26T17:05:24.815Z,17.10
2023-03-26T17:08:01.855Z,17.05
2023-03-26T17:10:34.924Z,17.02
2023-03-26T17:13:43.595Z,16.99
2023-03-26T17:16:19.666Z,16.96
2023-03-26T17:19:05.657Z,16.96
2023-03-26T17:21:47.905Z,16.89
2023-03-26T17:24:40.881Z,16.86
2023-03-26T17:27:34.401Z,16.85
2023-03-26T17:30:23.679Z,16.86
2023-03-26T17:32:59.003Z,16.87
2023-03-26T17:35:47.157Z,16.81
2023-03-26T17:38:17.592Z,16.84
2023-03-26T17:40:58.751Z,16.81
2023-03-26T17:43:47.383Z,16.79
2023-03-26T17:46:33.368Z,16.81
2023-03-26T17:49:16.452Z,16.83
2023-03-26T17:52:15.199Z,16.86
2023-03-26T17:54:46.763Z,16.85
2023-03-26T17:57:40.301Z,16.84
2023-03-26T18:00:16.555Z,16.82
2023-03-26T18:02:54.191Z,16.78
2023-03-26T18:05:24.156Z,16.83
2023-03-26T18:08:15.831Z,16.82
2023-03-26T18:10:46.363Z,16.86
2023-03-26T18:13:15.454Z,16.86
2023-03-26T18:15:45.538Z,16.85
2023-03-26T18:18:20.062Z,16.82
2023-03-26T18:20:49.867Z,16.79
2023-03-26T18:23:39.469Z,16.79
2023-03-26T18:26:21.260Z,16.78
2023-03-26T18:28:54.112Z,16.76
2023-03-26T18:31:26.420Z,16.77
2023-03-26T18:34:03.360Z,16.79
2023-03-26T18:36:31.677Z,16.76
2023-03-26T18:38:59.872Z,16.74
2023-03-26T18:41:32.490Z,16.73
2023-03-26T18:44:05.504Z,16.72
2023-03-26T18:46:34.174Z,16.75
2023-03-26T18:49:03.103Z,16.78
2023-03-26T18:51:35.031Z,16.79
2023-03-26T18:54:10.436Z,16.77
2023-03-26T18:56:43.709Z,16.77
2023-03-26T18:59:20.243Z,16.75
2023-03-26T19:01:49.037Z,16.70
2023-03-26T19:04:18.123Z,16.70
2023-03-26T19:06:46.337Z,16.68
2023-03-26T19:09:30.363Z,16.75
2023-03-26T19:12:07.071Z,16.81
2023-03-26T19:15:01.545Z,16.84
2023-03-26T19:17:34.744Z,16.85
2023-03-26T19:20:02.177Z,16.84
2023-03-26T19:22:31.744Z,16.81
2023-03-26T19:25:02.682Z,16.78
2023-03-26T19:27:30.501Z,16.78
2023-03-26T19:29:58.384Z,16.81
2023-03-26T19:32:34.799Z,16.90
2023-03-26T19:35:04.696Z,16.98
2023-03-26T19:37:32.656Z,17.05
2023-03-26T19:40:14.328Z,17.14
2023-03-26T19:42:44.825Z,17.16
2023-03-26T19:45:20.459Z,17.17
2023-03-26T19:50:42.763Z,17.11
2023-03-26T19:51:18.623Z,17.17
2023-03-26T19:53:17.956Z,17.07
2023-03-26T19:56:13.462Z,17.02
2023-03-26T19:58:41.853Z,17.00
2023-03-26T20:01:36.575Z,16.91
2023-03-26T20:04:06.962Z,16.88
2023-03-26T20:06:43.142Z,16.86
2023-03-26T20:09:13.004Z,16.85
2023-03-26T20:11:40.895Z,16.80
2023-03-26T20:14:14.378Z,16.72
2023-03-26T20:16:43.876Z,16.62
2023-03-26T20:19:14.283Z,16.58
2023-03-26T20:21:43.129Z,16.58
2023-03-26T20:24:19.892Z,16.54
2023-03-26T20:26:47.551Z,16.51
2023-03-26T20:29:15.415Z,16.55
2023-03-26T20:31:43.040Z,16.56
2023-03-26T20:34:20.180Z,16.56
2023-03-26T20:36:47.723Z,16.55
2023-03-26T20:39:24.251Z,16.58
2023-03-26T20:41:53.160Z,16.55
2023-03-26T20:44:22.160Z,16.55
2023-03-26T20:46:50.635Z,16.54
2023-03-26T20:49:18.611Z,16.49
2023-03-26T20:51:46.931Z,16.46
2023-03-26T20:54:17.837Z,16.46
2023-03-26T20:56:45.891Z,16.40
2023-03-26T20:59:19.240Z,16.37
2023-03-26T21:01:50.135Z,16.32
2023-03-26T21:04:18.078Z,16.35
2023-03-26T21:06:45.959Z,16.33
2023-03-26T21:09:18.322Z,16.27
2023-03-26T21:12:08.342Z,16.22
2023-03-26T21:14:44.421Z,16.18
2023-03-26T21:17:18.971Z,16.14
2023-03-26T21:19:47.358Z,16.14
2023-03-26T21:22:46.413Z,16.12
2023-03-26T21:25:38.695Z,16.14
2023-03-26T21:28:46.823Z,16.14
2023-03-26T21:31:18.754Z,16.13
2023-03-26T21:33:47.972Z,16.13
2023-03-26T21:36:18.189Z,16.10
2023-03-26T21:38:46.168Z,16.06
2023-03-26T21:41:29.699Z,16.03
2023-03-26T21:43:56.947Z,16.02
2023-03-26T21:46:24.534Z,16.02
2023-03-26T21:48:52.086Z,16.04
2023-03-26T21:51:19.569Z,16.06
2023-03-26T21:53:46.997Z,16.02
2023-03-26T21:56:29.046Z,16.01
2023-03-26T21:59:18.707Z,15.94
2023-03-26T22:02:16.762Z,15.92
2023-03-26T22:04:55.092Z,15.88
2023-03-26T22:07:49.528Z,15.86
2023-03-26T22:10:16.773Z,15.83
2023-03-26T22:12:43.790Z,15.82
2023-03-26T22:15:14.044Z,15.84
2023-03-26T22:17:42.287Z,15.81
2023-03-26T22:20:13.599Z,15.78
2023-03-26T22:22:48.942Z,15.73
2023-03-26T22:25:17.947Z,15.71
2023-03-26T22:27:46.596Z,15.69
2023-03-26T22:30:14.501Z,15.67
2023-03-26T22:32:43.429Z,15.67
2023-03-26T22:35:10.638Z,15.63
2023-03-26T22:37:38.001Z,15.60
2023-03-26T22:40:09.234Z,15.56
2023-03-26T22:42:36.702Z,15.49
2023-03-26T22:45:04.527Z,15.45
2023-03-26T22:47:33.935Z,15.39
2023-03-26T22:50:02.057Z,15.40
2023-03-26T22:52:30.521Z,15.37
2023-03-26T22:54:59.824Z,15.29
2023-03-26T22:57:27.609Z,15.24
2023-03-26T22:59:54.670Z,15.22
2023-03-26T23:02:22.217Z,15.20
2023-03-26T23:04:49.418Z,15.21
2023-03-26T23:07:16.683Z,15.20
2023-03-26T23:09:43.745Z,15.16
2023-03-26T23:12:10.989Z,15.12
2023-03-26T23:14:38.093Z,15.04
2023-03-26T23:17:05.368Z,15.07
2023-03-26T23:19:34.208Z,15.16
2023-03-26T23:22:01.437Z,15.35
2023-03-26T23:24:30.250Z,15.56
2023-03-26T23:26:57.390Z,15.67
2023-03-26T23:29:25.267Z,15.77
2023-03-26T23:31:53.092Z,15.80
2023-03-26T23:34:21.112Z,15.82
2023-03-26T23:36:48.243Z,15.81
2023-03-26T23:39:16.125Z,15.81
2023-03-26T23:41:44.017Z,15.78
2023-03-26T23:44:14.547Z,15.74
2023-03-26T23:46:43.023Z,15.66
2023-03-26T23:49:10.473Z,15.61
2023-03-26T23:51:37.697Z,15.59
2023-03-26T23:54:05.394Z,15.56
2023-03-26T23:56:32.752Z,15.49
2023-03-26T23:59:00.757Z,15.39
